»·PEaware :: N7274H KSMX-KBFL

N7274H :: KSMX-KBFL

FLIGHT INFORMATION

Flight Status: Arrived
Operator: Privately registered:
United States
More flights under this callsign
Pilot: Anonymous 16342 (16342)
Aircraft: CESSNA 172 SKYHAWK
(C172)
More flights by this aircraft type
Origin: KSMX Santa Maria Pub/Capt Hancock
United States
Destination: KBFL Meadows
United States
More flights between these airports :: More routes between these airports
Route: +
File this flight plan on PilotEdge
Remarks: CAT-05 Flight
Altitude:
(Current/Filed)
7,500ft
Speed:
(Current/Filed)
130kts
Departed: 24-Nov-17 02:30 PM
Arrived: 24-Nov-17 03:14 PM
Distance/Time
Traveled:
76nm/0:44
Distance/Time
To Go:
Arrived

Flight Plot

Page will automatically refresh every two minutes.


Map Options




Map Legend


Flown Route
Filed Route
Departure Airport
Arrival Airport
Navaid (VOR, NDB)
Fix

Horizontal Profiles

Position Reports

Time Latitude Longitude Heading Altitude Ground
Speed
24-Nov-17 14:21 34.896323 -120.445303 315 264ft 0kts
24-Nov-17 14:22 34.896323 -120.445303 315 264ft 0kts
24-Nov-17 14:23 34.896323 -120.445303 315 264ft 0kts
24-Nov-17 14:24 34.896324 -120.445304 315 264ft 0kts
24-Nov-17 14:25 34.896325 -120.445305 315 264ft 0kts
24-Nov-17 14:26 34.896325 -120.445306 315 264ft 0kts
24-Nov-17 14:27 34.896326 -120.445307 315 264ft 0kts
24-Nov-17 14:28 34.895197 -120.444934 144 264ft 0kts
24-Nov-17 14:29 34.894107 -120.445221 175 264ft 13kts
24-Nov-17 14:30 34.893434 -120.445241 183 264ft 0kts
24-Nov-17 14:31 34.893432 -120.445241 183 264ft 0kts
24-Nov-17 14:32 34.893430 -120.445242 183 264ft 0kts
24-Nov-17 14:33 34.893428 -120.445242 183 264ft 0kts
24-Nov-17 14:34 34.893421 -120.445242 183 264ft 1kts
24-Nov-17 14:35 34.896844 -120.450620 314 331ft 68kts
24-Nov-17 14:36 34.914608 -120.459188 50 1045ft 100kts
24-Nov-17 14:37 34.925845 -120.426763 59 1846ft 104kts
24-Nov-17 14:38 34.937740 -120.395501 58 2643ft 98kts
24-Nov-17 14:39 34.948859 -120.366092 58 3438ft 91kts
24-Nov-17 14:40 34.958335 -120.341083 56 4351ft 76kts
24-Nov-17 14:41 34.967116 -120.317937 56 5154ft 74kts
24-Nov-17 14:42 34.975567 -120.295543 55 5950ft 69kts
24-Nov-17 14:43 34.984081 -120.273023 56 6600ft 77kts
24-Nov-17 14:44 34.993469 -120.248066 58 7232ft 83kts
24-Nov-17 14:45 35.004518 -120.218718 59 7488ft 113kts
24-Nov-17 14:46 35.018242 -120.182043 60 7481ft 118kts
24-Nov-17 14:47 35.031892 -120.145701 60 7488ft 117kts
24-Nov-17 14:48 35.045542 -120.109423 60 7488ft 126kts
24-Nov-17 14:49 35.060626 -120.069073 60 7481ft 125kts
24-Nov-17 14:50 35.075243 -120.030109 60 7487ft 131kts
24-Nov-17 14:51 35.089831 -119.991076 61 7485ft 116kts
24-Nov-17 14:52 35.103250 -119.955255 61 7492ft 116kts
24-Nov-17 14:53 35.116653 -119.919356 60 7495ft 115kts
24-Nov-17 14:54 35.129968 -119.883634 61 7497ft 115kts
24-Nov-17 14:55 35.143734 -119.846635 61 7502ft 117kts
24-Nov-17 14:56 35.157143 -119.810625 61 7508ft 116kts
24-Nov-17 14:57 35.171139 -119.773006 61 7514ft 130kts
24-Nov-17 14:58 35.186351 -119.731950 62 7544ft 136kts
24-Nov-17 14:59 35.201969 -119.689779 62 7550ft 136kts
24-Nov-17 15:00 35.216831 -119.649575 61 7549ft 120kts
24-Nov-17 15:01 35.230929 -119.611561 62 7561ft 130kts
24-Nov-17 15:02 35.245374 -119.572406 61 7582ft 119kts
24-Nov-17 15:03 35.259515 -119.534148 62 7586ft 132kts
24-Nov-17 15:04 35.274834 -119.492521 62 7590ft 137kts
24-Nov-17 15:05 35.288371 -119.455672 62 7585ft 117kts
24-Nov-17 15:06 35.302213 -119.418096 62 7598ft 132kts
24-Nov-17 15:07 35.316889 -119.378039 62 7583ft 120kts
24-Nov-17 15:08 35.330241 -119.341649 62 7587ft 114kts
24-Nov-17 15:09 35.343703 -119.304922 62 7305ft 124kts
24-Nov-17 15:10 35.356935 -119.268681 63 6650ft 129kts
24-Nov-17 15:11 35.371544 -119.228687 63 5942ft 125kts
24-Nov-17 15:12 35.384984 -119.191830 62 5577ft 109kts
24-Nov-17 15:13 35.396997 -119.158914 62 5143ft 102kts
24-Nov-17 15:14 35.408435 -119.127523 63 4425ft 97kts
24-Nov-17 15:15 35.421184 -119.093929 54 3490ft 131kts
24-Nov-17 15:16 35.419330 -119.060621 139 1853ft 95kts
24-Nov-17 15:17 35.404526 -119.038428 90 1194ft 82kts
24-Nov-17 15:18 35.421228 -119.044624 314 718ft 76kts
24-Nov-17 15:19 35.433489 -119.059252 310 510ft 26kts
24-Nov-17 15:20 35.433892 -119.060867 143 510ft 2kts
24-Nov-17 15:21 35.429328 -119.055455 186 510ft 12kts
24-Nov-17 15:22 35.428767 -119.055773 309 510ft 0kts

Navigation Log

Ident Type
Flight plan parsing failed, navigation log unavailable